sensor_id;sensor_type;location;lat;lon;timestamp;P1;durP1;ratioP1;P2;durP2;ratioP2
3066;SDS011;1544;48.834;9.194;2022-08-02T00:00:15;1.20;;;1.10;;
3066;SDS011;1544;48.834;9.194;2022-08-02T00:02:46;1.20;;;1.10;;
3066;SDS011;1544;48.834;9.194;2022-08-02T00:05:18;1.00;;;1.00;;
3066;SDS011;1544;48.834;9.194;2022-08-02T00:07:49;1.10;;;1.10;;
3066;SDS011;1544;48.834;9.194;2022-08-02T00:10:20;1.27;;;1.17;;
3066;SDS011;1544;48.834;9.194;2022-08-02T00:12:51;1.27;;;1.23;;
3066;SDS011;1544;48.834;9.194;2022-08-02T00:15:24;1.60;;;1.50;;
3066;SDS011;1544;48.834;9.194;2022-08-02T00:17:55;1.50;;;1.40;;
3066;SDS011;1544;48.834;9.194;2022-08-02T00:20:26;1.30;;;1.20;;
3066;SDS011;1544;48.834;9.194;2022-08-02T00:22:57;1.37;;;1.27;;
3066;SDS011;1544;48.834;9.194;2022-08-02T00:25:28;1.23;;;1.13;;
3066;SDS011;1544;48.834;9.194;2022-08-02T00:27:59;1.37;;;1.13;;
3066;SDS011;1544;48.834;9.194;2022-08-02T00:30:30;1.30;;;1.20;;
3066;SDS011;1544;48.834;9.194;2022-08-02T00:33:01;1.50;;;1.40;;
3066;SDS011;1544;48.834;9.194;2022-08-02T00:35:34;1.60;;;1.50;;
3066;SDS011;1544;48.834;9.194;2022-08-02T00:38:10;1.50;;;1.40;;
3066;SDS011;1544;48.834;9.194;2022-08-02T00:40:45;1.93;;;1.60;;
3066;SDS011;1544;48.834;9.194;2022-08-02T00:43:27;2.70;;;1.47;;
3066;SDS011;1544;48.834;9.194;2022-08-02T00:45:58;1.60;;;1.50;;
3066;SDS011;1544;48.834;9.194;2022-08-02T00:48:33;1.60;;;1.50;;
3066;SDS011;1544;48.834;9.194;2022-08-02T00:51:04;1.87;;;1.70;;
3066;SDS011;1544;48.834;9.194;2022-08-02T00:53:35;1.90;;;1.80;;
3066;SDS011;1544;48.834;9.194;2022-08-02T00:56:06;1.90;;;1.80;;
3066;SDS011;1544;48.834;9.194;2022-08-02T00:58:37;1.60;;;1.50;;
3066;SDS011;1544;48.834;9.194;2022-08-02T01:01:08;1.90;;;1.80;;
3066;SDS011;1544;48.834;9.194;2022-08-02T01:03:39;2.20;;;2.00;;
3066;SDS011;1544;48.834;9.194;2022-08-02T01:06:10;1.80;;;1.70;;
3066;SDS011;1544;48.834;9.194;2022-08-02T01:08:41;1.87;;;1.70;;
3066;SDS011;1544;48.834;9.194;2022-08-02T01:11:13;1.90;;;1.80;;
3066;SDS011;1544;48.834;9.194;2022-08-02T01:13:44;2.30;;;2.10;;
3066;SDS011;1544;48.834;9.194;2022-08-02T01:16:18;1.77;;;1.67;;
3066;SDS011;1544;48.834;9.194;2022-08-02T01:18:53;2.00;;;1.90;;
3066;SDS011;1544;48.834;9.194;2022-08-02T01:28:07;1.93;;;1.83;;
3066;SDS011;1544;48.834;9.194;2022-08-02T01:31:01;1.80;;;1.70;;
3066;SDS011;1544;48.834;9.194;2022-08-02T01:33:40;1.93;;;1.80;;
3066;SDS011;1544;48.834;9.194;2022-08-02T01:36:21;1.60;;;1.50;;
3066;SDS011;1544;48.834;9.194;2022-08-02T01:38:54;1.93;;;1.83;;
3066;SDS011;1544;48.834;9.194;2022-08-02T01:41:26;1.93;;;1.80;;
3066;SDS011;1544;48.834;9.194;2022-08-02T01:43:59;2.27;;;2.17;;
3066;SDS011;1544;48.834;9.194;2022-08-02T01:46:32;1.50;;;1.40;;
3066;SDS011;1544;48.834;9.194;2022-08-02T01:49:04;1.80;;;1.53;;
3066;SDS011;1544;48.834;9.194;2022-08-02T01:51:39;1.70;;;1.60;;
3066;SDS011;1544;48.834;9.194;2022-08-02T01:54:31;1.60;;;1.50;;
3066;SDS011;1544;48.834;9.194;2022-08-02T01:57:04;1.60;;;1.50;;
3066;SDS011;1544;48.834;9.194;2022-08-02T01:59:39;1.70;;;1.60;;
3066;SDS011;1544;48.834;9.194;2022-08-02T02:02:13;2.83;;;1.50;;
3066;SDS011;1544;48.834;9.194;2022-08-02T02:04:45;2.00;;;1.90;;
3066;SDS011;1544;48.834;9.194;2022-08-02T02:07:19;1.80;;;1.70;;
3066;SDS011;1544;48.834;9.194;2022-08-02T02:09:51;1.80;;;1.70;;
3066;SDS011;1544;48.834;9.194;2022-08-02T02:12:24;1.60;;;1.50;;
3066;SDS011;1544;48.834;9.194;2022-08-02T02:14:56;2.03;;;1.70;;
3066;SDS011;1544;48.834;9.194;2022-08-02T02:17:29;2.20;;;2.10;;
3066;SDS011;1544;48.834;9.194;2022-08-02T02:20:22;3.97;;;1.80;;
3066;SDS011;1544;48.834;9.194;2022-08-02T02:22:53;1.70;;;1.60;;
3066;SDS011;1544;48.834;9.194;2022-08-02T02:25:25;1.93;;;1.83;;
3066;SDS011;1544;48.834;9.194;2022-08-02T02:28:40;2.00;;;1.77;;
3066;SDS011;1544;48.834;9.194;2022-08-02T02:31:15;1.83;;;1.60;;
3066;SDS011;1544;48.834;9.194;2022-08-02T02:33:58;1.83;;;1.73;;
3066;SDS011;1544;48.834;9.194;2022-08-02T02:36:34;1.93;;;1.83;;
3066;SDS011;1544;48.834;9.194;2022-08-02T02:39:10;2.60;;;1.57;;
3066;SDS011;1544;48.834;9.194;2022-08-02T02:41:43;2.10;;;1.90;;
3066;SDS011;1544;48.834;9.194;2022-08-02T02:44:17;1.80;;;1.70;;
3066;SDS011;1544;48.834;9.194;2022-08-02T02:46:51;1.60;;;1.50;;
3066;SDS011;1544;48.834;9.194;2022-08-02T02:49:24;1.90;;;1.80;;
3066;SDS011;1544;48.834;9.194;2022-08-02T02:51:56;1.60;;;1.50;;
3066;SDS011;1544;48.834;9.194;2022-08-02T02:54:27;1.70;;;1.60;;
3066;SDS011;1544;48.834;9.194;2022-08-02T02:57:05;1.50;;;1.40;;
3066;SDS011;1544;48.834;9.194;2022-08-02T02:59:37;1.87;;;1.77;;
3066;SDS011;1544;48.834;9.194;2022-08-02T03:02:19;1.90;;;1.80;;
3066;SDS011;1544;48.834;9.194;2022-08-02T03:04:50;1.80;;;1.70;;
3066;SDS011;1544;48.834;9.194;2022-08-02T03:07:26;1.70;;;1.60;;
3066;SDS011;1544;48.834;9.194;2022-08-02T03:09:58;2.63;;;2.47;;
3066;SDS011;1544;48.834;9.194;2022-08-02T03:12:29;2.17;;;2.07;;
3066;SDS011;1544;48.834;9.194;2022-08-02T03:15:05;2.03;;;1.93;;
3066;SDS011;1544;48.834;9.194;2022-08-02T03:17:39;2.43;;;2.07;;
3066;SDS011;1544;48.834;9.194;2022-08-02T03:20:16;2.07;;;1.93;;
3066;SDS011;1544;48.834;9.194;2022-08-02T03:22:49;2.10;;;2.00;;
3066;SDS011;1544;48.834;9.194;2022-08-02T03:25:20;2.47;;;1.90;;
3066;SDS011;1544;48.834;9.194;2022-08-02T03:27:51;2.97;;;2.33;;
3066;SDS011;1544;48.834;9.194;2022-08-02T03:30:22;2.60;;;2.40;;
3066;SDS011;1544;48.834;9.194;2022-08-02T03:32:56;2.60;;;2.40;;
3066;SDS011;1544;48.834;9.194;2022-08-02T03:35:27;2.23;;;2.13;;
3066;SDS011;1544;48.834;9.194;2022-08-02T03:37:58;1.80;;;1.70;;
3066;SDS011;1544;48.834;9.194;2022-08-02T03:40:30;3.67;;;2.40;;
3066;SDS011;1544;48.834;9.194;2022-08-02T03:43:01;2.33;;;2.13;;
3066;SDS011;1544;48.834;9.194;2022-08-02T03:45:33;3.00;;;2.73;;
3066;SDS011;1544;48.834;9.194;2022-08-02T03:48:05;3.07;;;2.87;;
3066;SDS011;1544;48.834;9.194;2022-08-02T03:50:57;2.30;;;2.10;;
3066;SDS011;1544;48.834;9.194;2022-08-02T03:53:29;2.57;;;2.37;;
3066;SDS011;1544;48.834;9.194;2022-08-02T03:56:00;3.30;;;2.93;;
3066;SDS011;1544;48.834;9.194;2022-08-02T03:58:32;4.13;;;2.67;;
3066;SDS011;1544;48.834;9.194;2022-08-02T04:01:03;2.70;;;2.50;;
3066;SDS011;1544;48.834;9.194;2022-08-02T04:03:34;3.47;;;2.83;;
3066;SDS011;1544;48.834;9.194;2022-08-02T04:06:05;2.40;;;2.20;;
3066;SDS011;1544;48.834;9.194;2022-08-02T04:08:36;3.33;;;2.90;;
3066;SDS011;1544;48.834;9.194;2022-08-02T04:11:08;3.10;;;2.47;;
3066;SDS011;1544;48.834;9.194;2022-08-02T04:14:01;3.83;;;2.90;;
3066;SDS011;1544;48.834;9.194;2022-08-02T04:16:44;3.90;;;2.47;;
3066;SDS011;1544;48.834;9.194;2022-08-02T04:22:15;2.67;;;2.47;;
3066;SDS011;1544;48.834;9.194;2022-08-02T04:24:53;3.00;;;2.30;;
3066;SDS011;1544;48.834;9.194;2022-08-02T04:27:29;2.30;;;2.10;;
3066;SDS011;1544;48.834;9.194;2022-08-02T04:30:21;1.90;;;1.80;;
3066;SDS011;1544;48.834;9.194;2022-08-02T04:32:52;1.93;;;1.80;;
3066;SDS011;1544;48.834;9.194;2022-08-02T04:35:24;4.53;;;2.10;;
3066;SDS011;1544;48.834;9.194;2022-08-02T04:37:56;1.80;;;1.70;;
3066;SDS011;1544;48.834;9.194;2022-08-02T04:40:39;2.30;;;2.10;;
3066;SDS011;1544;48.834;9.194;2022-08-02T04:43:10;2.30;;;2.10;;
3066;SDS011;1544;48.834;9.194;2022-08-02T04:45:41;2.20;;;2.00;;
3066;SDS011;1544;48.834;9.194;2022-08-02T04:48:13;1.77;;;1.67;;
3066;SDS011;1544;48.834;9.194;2022-08-02T04:50:44;2.33;;;2.17;;
3066;SDS011;1544;48.834;9.194;2022-08-02T04:53:15;3.00;;;2.20;;
3066;SDS011;1544;48.834;9.194;2022-08-02T04:55:46;2.37;;;2.17;;
3066;SDS011;1544;48.834;9.194;2022-08-02T04:58:18;2.53;;;2.33;;
3066;SDS011;1544;48.834;9.194;2022-08-02T05:01:09;1.93;;;1.67;;
3066;SDS011;1544;48.834;9.194;2022-08-02T05:03:40;1.90;;;1.80;;
3066;SDS011;1544;48.834;9.194;2022-08-02T05:06:16;1.97;;;1.87;;
3066;SDS011;1544;48.834;9.194;2022-08-02T05:08:49;3.53;;;1.80;;
3066;SDS011;1544;48.834;9.194;2022-08-02T05:11:23;2.00;;;1.80;;
3066;SDS011;1544;48.834;9.194;2022-08-02T05:14:06;2.00;;;1.90;;
3066;SDS011;1544;48.834;9.194;2022-08-02T05:16:37;1.53;;;1.43;;
3066;SDS011;1544;48.834;9.194;2022-08-02T05:19:08;1.53;;;1.43;;
3066;SDS011;1544;48.834;9.194;2022-08-02T05:21:39;1.63;;;1.53;;
3066;SDS011;1544;48.834;9.194;2022-08-02T05:24:10;1.60;;;1.50;;
3066;SDS011;1544;48.834;9.194;2022-08-02T05:26:41;1.87;;;1.77;;
3066;SDS011;1544;48.834;9.194;2022-08-02T05:29:12;1.57;;;1.47;;
3066;SDS011;1544;48.834;9.194;2022-08-02T05:31:43;2.27;;;1.40;;
3066;SDS011;1544;48.834;9.194;2022-08-02T05:34:15;2.23;;;1.87;;
3066;SDS011;1544;48.834;9.194;2022-08-02T05:36:46;2.40;;;2.30;;
3066;SDS011;1544;48.834;9.194;2022-08-02T05:39:17;1.83;;;1.70;;
3066;SDS011;1544;48.834;9.194;2022-08-02T05:41:49;2.10;;;2.00;;
3066;SDS011;1544;48.834;9.194;2022-08-02T05:44:20;1.77;;;1.67;;
3066;SDS011;1544;48.834;9.194;2022-08-02T05:46:52;2.23;;;2.00;;
3066;SDS011;1544;48.834;9.194;2022-08-02T05:49:23;1.90;;;1.80;;
3066;SDS011;1544;48.834;9.194;2022-08-02T05:57:53;2.27;;;2.17;;
3066;SDS011;1544;48.834;9.194;2022-08-02T06:00:32;2.90;;;2.67;;
3066;SDS011;1544;48.834;9.194;2022-08-02T06:08:30;3.20;;;2.40;;
3066;SDS011;1544;48.834;9.194;2022-08-02T06:11:33;2.20;;;2.00;;
3066;SDS011;1544;48.834;9.194;2022-08-02T06:14:32;2.33;;;1.70;;
3066;SDS011;1544;48.834;9.194;2022-08-02T06:17:03;2.10;;;2.00;;
3066;SDS011;1544;48.834;9.194;2022-08-02T06:19:36;1.90;;;1.80;;
3066;SDS011;1544;48.834;9.194;2022-08-02T06:22:22;2.40;;;2.20;;
3066;SDS011;1544;48.834;9.194;2022-08-02T06:25:06;2.17;;;1.93;;
3066;SDS011;1544;48.834;9.194;2022-08-02T06:27:58;1.70;;;1.60;;
3066;SDS011;1544;48.834;9.194;2022-08-02T06:30:30;1.70;;;1.60;;
3066;SDS011;1544;48.834;9.194;2022-08-02T06:33:02;2.33;;;2.00;;
3066;SDS011;1544;48.834;9.194;2022-08-02T06:35:34;2.33;;;1.80;;
3066;SDS011;1544;48.834;9.194;2022-08-02T06:38:23;1.83;;;1.70;;
3066;SDS011;1544;48.834;9.194;2022-08-02T06:43:57;1.80;;;1.70;;
3066;SDS011;1544;48.834;9.194;2022-08-02T06:46:50;4.03;;;2.50;;
3066;SDS011;1544;48.834;9.194;2022-08-02T06:49:42;1.87;;;1.70;;
3066;SDS011;1544;48.834;9.194;2022-08-02T06:52:24;2.13;;;1.60;;
3066;SDS011;1544;48.834;9.194;2022-08-02T06:55:00;2.40;;;2.27;;
3066;SDS011;1544;48.834;9.194;2022-08-02T06:57:34;2.80;;;2.20;;
3066;SDS011;1544;48.834;9.194;2022-08-02T07:00:05;2.70;;;2.50;;
3066;SDS011;1544;48.834;9.194;2022-08-02T07:02:38;1.90;;;1.80;;
3066;SDS011;1544;48.834;9.194;2022-08-02T07:05:10;2.73;;;2.53;;
3066;SDS011;1544;48.834;9.194;2022-08-02T07:07:41;2.87;;;2.67;;
3066;SDS011;1544;48.834;9.194;2022-08-02T07:10:12;2.33;;;2.13;;
3066;SDS011;1544;48.834;9.194;2022-08-02T07:12:44;2.50;;;2.30;;
3066;SDS011;1544;48.834;9.194;2022-08-02T07:15:15;2.50;;;2.30;;
3066;SDS011;1544;48.834;9.194;2022-08-02T07:17:46;3.03;;;2.83;;
3066;SDS011;1544;48.834;9.194;2022-08-02T07:20:17;2.00;;;1.90;;
3066;SDS011;1544;48.834;9.194;2022-08-02T07:22:48;3.07;;;2.77;;
3066;SDS011;1544;48.834;9.194;2022-08-02T07:25:20;2.90;;;2.70;;
3066;SDS011;1544;48.834;9.194;2022-08-02T07:27:52;4.20;;;3.90;;
3066;SDS011;1544;48.834;9.194;2022-08-02T07:30:25;3.10;;;2.90;;
3066;SDS011;1544;48.834;9.194;2022-08-02T07:32:57;2.60;;;2.40;;
3066;SDS011;1544;48.834;9.194;2022-08-02T07:35:31;2.20;;;2.10;;
3066;SDS011;1544;48.834;9.194;2022-08-02T07:38:06;2.70;;;2.57;;
3066;SDS011;1544;48.834;9.194;2022-08-02T07:40:38;2.90;;;2.70;;
3066;SDS011;1544;48.834;9.194;2022-08-02T07:43:09;2.20;;;2.10;;
3066;SDS011;1544;48.834;9.194;2022-08-02T07:45:41;2.20;;;2.10;;
3066;SDS011;1544;48.834;9.194;2022-08-02T07:48:25;2.40;;;2.20;;
3066;SDS011;1544;48.834;9.194;2022-08-02T07:50:56;2.37;;;2.10;;
3066;SDS011;1544;48.834;9.194;2022-08-02T07:53:27;3.80;;;2.33;;
3066;SDS011;1544;48.834;9.194;2022-08-02T07:56:19;4.60;;;2.00;;
3066;SDS011;1544;48.834;9.194;2022-08-02T07:58:51;2.43;;;2.30;;
3066;SDS011;1544;48.834;9.194;2022-08-02T08:01:22;2.43;;;2.17;;
3066;SDS011;1544;48.834;9.194;2022-08-02T08:03:53;5.37;;;3.13;;
3066;SDS011;1544;48.834;9.194;2022-08-02T08:06:24;4.30;;;3.87;;
3066;SDS011;1544;48.834;9.194;2022-08-02T08:08:58;2.60;;;2.40;;
3066;SDS011;1544;48.834;9.194;2022-08-02T08:11:29;2.53;;;2.40;;
3066;SDS011;1544;48.834;9.194;2022-08-02T08:14:00;4.03;;;3.73;;
3066;SDS011;1544;48.834;9.194;2022-08-02T08:16:32;3.50;;;3.30;;
3066;SDS011;1544;48.834;9.194;2022-08-02T08:19:03;2.93;;;2.67;;
3066;SDS011;1544;48.834;9.194;2022-08-02T08:21:34;3.73;;;2.77;;
3066;SDS011;1544;48.834;9.194;2022-08-02T08:24:05;4.43;;;3.90;;
3066;SDS011;1544;48.834;9.194;2022-08-02T08:26:37;3.97;;;3.67;;
3066;SDS011;1544;48.834;9.194;2022-08-02T08:29:10;4.83;;;3.67;;
3066;SDS011;1544;48.834;9.194;2022-08-02T08:31:41;3.43;;;3.20;;
3066;SDS011;1544;48.834;9.194;2022-08-02T08:34:12;3.87;;;3.47;;
3066;SDS011;1544;48.834;9.194;2022-08-02T08:36:44;4.13;;;3.93;;
3066;SDS011;1544;48.834;9.194;2022-08-02T08:39:15;4.33;;;4.00;;
3066;SDS011;1544;48.834;9.194;2022-08-02T08:41:46;3.13;;;3.03;;
3066;SDS011;1544;48.834;9.194;2022-08-02T08:44:17;3.53;;;3.33;;
3066;SDS011;1544;48.834;9.194;2022-08-02T08:46:48;4.43;;;4.23;;
3066;SDS011;1544;48.834;9.194;2022-08-02T08:49:28;3.90;;;3.70;;
3066;SDS011;1544;48.834;9.194;2022-08-02T08:52:22;3.23;;;3.03;;
3066;SDS011;1544;48.834;9.194;2022-08-02T08:54:55;5.37;;;3.97;;
3066;SDS011;1544;48.834;9.194;2022-08-02T08:57:28;4.50;;;4.20;;
3066;SDS011;1544;48.834;9.194;2022-08-02T09:00:01;4.90;;;3.40;;
3066;SDS011;1544;48.834;9.194;2022-08-02T09:02:33;4.03;;;3.67;;
3066;SDS011;1544;48.834;9.194;2022-08-02T09:05:07;3.63;;;3.50;;
3066;SDS011;1544;48.834;9.194;2022-08-02T09:07:41;3.60;;;3.40;;
3066;SDS011;1544;48.834;9.194;2022-08-02T09:10:33;3.73;;;3.43;;
3066;SDS011;1544;48.834;9.194;2022-08-02T09:13:22;3.60;;;3.40;;
3066;SDS011;1544;48.834;9.194;2022-08-02T09:16:15;4.20;;;4.00;;
3066;SDS011;1544;48.834;9.194;2022-08-02T09:19:21;3.90;;;3.70;;
3066;SDS011;1544;48.834;9.194;2022-08-02T09:22:02;4.83;;;4.53;;
3066;SDS011;1544;48.834;9.194;2022-08-02T09:24:41;4.00;;;3.70;;
3066;SDS011;1544;48.834;9.194;2022-08-02T09:27:19;3.17;;;3.07;;
3066;SDS011;1544;48.834;9.194;2022-08-02T09:29:53;4.53;;;3.37;;
3066;SDS011;1544;48.834;9.194;2022-08-02T09:32:43;3.93;;;3.73;;
3066;SDS011;1544;48.834;9.194;2022-08-02T09:35:32;3.70;;;3.50;;
3066;SDS011;1544;48.834;9.194;2022-08-02T09:38:24;3.90;;;3.70;;
3066;SDS011;1544;48.834;9.194;2022-08-02T09:40:56;3.33;;;3.13;;
3066;SDS011;1544;48.834;9.194;2022-08-02T09:43:39;3.40;;;3.30;;
3066;SDS011;1544;48.834;9.194;2022-08-02T09:46:36;3.57;;;3.47;;
3066;SDS011;1544;48.834;9.194;2022-08-02T09:49:13;4.80;;;3.90;;
3066;SDS011;1544;48.834;9.194;2022-08-02T09:51:53;3.67;;;3.50;;
3066;SDS011;1544;48.834;9.194;2022-08-02T09:54:27;3.17;;;3.07;;
3066;SDS011;1544;48.834;9.194;2022-08-02T09:57:00;3.47;;;3.27;;
3066;SDS011;1544;48.834;9.194;2022-08-02T09:59:31;3.80;;;3.60;;
3066;SDS011;1544;48.834;9.194;2022-08-02T10:02:08;3.40;;;3.20;;
3066;SDS011;1544;48.834;9.194;2022-08-02T10:04:49;4.10;;;3.90;;
3066;SDS011;1544;48.834;9.194;2022-08-02T10:07:23;4.10;;;3.90;;
3066;SDS011;1544;48.834;9.194;2022-08-02T10:09:54;3.40;;;3.20;;
3066;SDS011;1544;48.834;9.194;2022-08-02T10:12:25;3.57;;;3.27;;
3066;SDS011;1544;48.834;9.194;2022-08-02T10:14:57;3.27;;;3.17;;
3066;SDS011;1544;48.834;9.194;2022-08-02T10:17:29;3.40;;;3.20;;
3066;SDS011;1544;48.834;9.194;2022-08-02T10:20:00;3.87;;;3.57;;
3066;SDS011;1544;48.834;9.194;2022-08-02T10:22:34;3.33;;;3.13;;
3066;SDS011;1544;48.834;9.194;2022-08-02T10:25:08;3.97;;;3.77;;
3066;SDS011;1544;48.834;9.194;2022-08-02T10:27:39;3.30;;;3.00;;
3066;SDS011;1544;48.834;9.194;2022-08-02T10:30:37;2.87;;;2.77;;
3066;SDS011;1544;48.834;9.194;2022-08-02T10:33:10;3.43;;;3.27;;
3066;SDS011;1544;48.834;9.194;2022-08-02T10:35:42;2.60;;;2.50;;
3066;SDS011;1544;48.834;9.194;2022-08-02T10:38:15;3.60;;;3.40;;
3066;SDS011;1544;48.834;9.194;2022-08-02T10:40:48;3.50;;;3.30;;
3066;SDS011;1544;48.834;9.194;2022-08-02T10:49:06;4.60;;;3.07;;
3066;SDS011;1544;48.834;9.194;2022-08-02T10:54:33;4.17;;;3.53;;
3066;SDS011;1544;48.834;9.194;2022-08-02T10:57:21;3.73;;;3.47;;
3066;SDS011;1544;48.834;9.194;2022-08-02T11:00:11;4.30;;;4.00;;
3066;SDS011;1544;48.834;9.194;2022-08-02T11:02:55;3.40;;;3.27;;
3066;SDS011;1544;48.834;9.194;2022-08-02T11:08:16;2.30;;;2.20;;
3066;SDS011;1544;48.834;9.194;2022-08-02T11:10:50;2.53;;;2.33;;
3066;SDS011;1544;48.834;9.194;2022-08-02T11:13:21;3.03;;;2.83;;
3066;SDS011;1544;48.834;9.194;2022-08-02T11:15:59;2.57;;;2.47;;
3066;SDS011;1544;48.834;9.194;2022-08-02T11:21:28;2.17;;;2.07;;
3066;SDS011;1544;48.834;9.194;2022-08-02T11:27:00;2.83;;;2.70;;
3066;SDS011;1544;48.834;9.194;2022-08-02T11:29:38;2.73;;;2.30;;
3066;SDS011;1544;48.834;9.194;2022-08-02T11:32:17;2.43;;;2.23;;
3066;SDS011;1544;48.834;9.194;2022-08-02T11:35:00;2.50;;;2.40;;
3066;SDS011;1544;48.834;9.194;2022-08-02T11:37:33;2.53;;;2.10;;
3066;SDS011;1544;48.834;9.194;2022-08-02T11:40:09;3.03;;;2.83;;
3066;SDS011;1544;48.834;9.194;2022-08-02T11:42:49;2.30;;;2.17;;
3066;SDS011;1544;48.834;9.194;2022-08-02T11:45:23;2.33;;;2.23;;
3066;SDS011;1544;48.834;9.194;2022-08-02T11:47:59;2.57;;;2.37;;
3066;SDS011;1544;48.834;9.194;2022-08-02T11:50:30;2.33;;;2.23;;
3066;SDS011;1544;48.834;9.194;2022-08-02T11:53:01;2.50;;;2.40;;
3066;SDS011;1544;48.834;9.194;2022-08-02T11:55:43;2.60;;;2.50;;
3066;SDS011;1544;48.834;9.194;2022-08-02T11:58:14;2.67;;;2.47;;
3066;SDS011;1544;48.834;9.194;2022-08-02T12:00:45;2.23;;;2.03;;
3066;SDS011;1544;48.834;9.194;2022-08-02T12:03:16;2.40;;;2.30;;
3066;SDS011;1544;48.834;9.194;2022-08-02T12:05:49;2.30;;;2.20;;
3066;SDS011;1544;48.834;9.194;2022-08-02T12:08:35;2.43;;;2.33;;
3066;SDS011;1544;48.834;9.194;2022-08-02T12:11:07;2.37;;;2.27;;
3066;SDS011;1544;48.834;9.194;2022-08-02T12:13:44;2.50;;;2.40;;
3066;SDS011;1544;48.834;9.194;2022-08-02T12:16:33;2.70;;;2.30;;
3066;SDS011;1544;48.834;9.194;2022-08-02T12:19:26;2.77;;;2.57;;
3066;SDS011;1544;48.834;9.194;2022-08-02T12:24:56;2.20;;;2.10;;
3066;SDS011;1544;48.834;9.194;2022-08-02T12:32:42;2.00;;;1.90;;
3066;SDS011;1544;48.834;9.194;2022-08-02T12:35:15;2.27;;;2.17;;
3066;SDS011;1544;48.834;9.194;2022-08-02T12:37:56;2.40;;;2.20;;
3066;SDS011;1544;48.834;9.194;2022-08-02T12:40:31;2.30;;;2.20;;
3066;SDS011;1544;48.834;9.194;2022-08-02T12:43:06;2.87;;;2.77;;
3066;SDS011;1544;48.834;9.194;2022-08-02T12:45:50;2.17;;;2.07;;
3066;SDS011;1544;48.834;9.194;2022-08-02T12:48:31;2.00;;;1.90;;
3066;SDS011;1544;48.834;9.194;2022-08-02T12:51:30;2.37;;;2.17;;
3066;SDS011;1544;48.834;9.194;2022-08-02T12:54:28;2.93;;;1.87;;
3066;SDS011;1544;48.834;9.194;2022-08-02T12:57:11;1.70;;;1.60;;
3066;SDS011;1544;48.834;9.194;2022-08-02T12:59:49;2.80;;;1.70;;
3066;SDS011;1544;48.834;9.194;2022-08-02T13:02:22;2.20;;;2.10;;
3066;SDS011;1544;48.834;9.194;2022-08-02T13:04:53;1.90;;;1.80;;
3066;SDS011;1544;48.834;9.194;2022-08-02T13:07:29;2.07;;;1.97;;
3066;SDS011;1544;48.834;9.194;2022-08-02T13:10:00;1.80;;;1.70;;
3066;SDS011;1544;48.834;9.194;2022-08-02T13:12:32;1.90;;;1.80;;
3066;SDS011;1544;48.834;9.194;2022-08-02T13:15:08;2.00;;;1.90;;
3066;SDS011;1544;48.834;9.194;2022-08-02T13:18:00;2.07;;;1.80;;
3066;SDS011;1544;48.834;9.194;2022-08-02T13:20:32;2.10;;;2.00;;
3066;SDS011;1544;48.834;9.194;2022-08-02T13:23:03;1.77;;;1.67;;
3066;SDS011;1544;48.834;9.194;2022-08-02T13:25:35;2.20;;;2.10;;
3066;SDS011;1544;48.834;9.194;2022-08-02T13:28:06;1.83;;;1.73;;
3066;SDS011;1544;48.834;9.194;2022-08-02T13:30:38;1.73;;;1.63;;
3066;SDS011;1544;48.834;9.194;2022-08-02T13:33:09;1.50;;;1.50;;
3066;SDS011;1544;48.834;9.194;2022-08-02T13:35:40;2.00;;;1.90;;
3066;SDS011;1544;48.834;9.194;2022-08-02T13:38:13;1.57;;;1.47;;
3066;SDS011;1544;48.834;9.194;2022-08-02T13:40:44;1.83;;;1.73;;
3066;SDS011;1544;48.834;9.194;2022-08-02T13:43:35;1.70;;;1.60;;
3066;SDS011;1544;48.834;9.194;2022-08-02T13:46:24;1.50;;;1.40;;
3066;SDS011;1544;48.834;9.194;2022-08-02T13:48:58;1.67;;;1.57;;
3066;SDS011;1544;48.834;9.194;2022-08-02T13:51:29;1.67;;;1.57;;
3066;SDS011;1544;48.834;9.194;2022-08-02T13:54:06;1.50;;;1.40;;
3066;SDS011;1544;48.834;9.194;2022-08-02T13:56:37;1.67;;;1.57;;
3066;SDS011;1544;48.834;9.194;2022-08-02T13:59:08;1.40;;;1.40;;
3066;SDS011;1544;48.834;9.194;2022-08-02T14:02:00;2.33;;;2.13;;
3066;SDS011;1544;48.834;9.194;2022-08-02T14:04:31;1.60;;;1.50;;
3066;SDS011;1544;48.834;9.194;2022-08-02T14:07:02;1.40;;;1.40;;
3066;SDS011;1544;48.834;9.194;2022-08-02T14:09:33;1.60;;;1.50;;
3066;SDS011;1544;48.834;9.194;2022-08-02T14:12:05;2.80;;;1.40;;
3066;SDS011;1544;48.834;9.194;2022-08-02T14:14:37;2.80;;;1.50;;
3066;SDS011;1544;48.834;9.194;2022-08-02T14:17:08;1.50;;;1.40;;
3066;SDS011;1544;48.834;9.194;2022-08-02T14:19:40;1.33;;;1.33;;
3066;SDS011;1544;48.834;9.194;2022-08-02T14:22:12;1.60;;;1.50;;
3066;SDS011;1544;48.834;9.194;2022-08-02T14:24:43;1.40;;;1.30;;
3066;SDS011;1544;48.834;9.194;2022-08-02T14:27:14;1.20;;;1.20;;
3066;SDS011;1544;48.834;9.194;2022-08-02T14:29:45;2.03;;;1.50;;
3066;SDS011;1544;48.834;9.194;2022-08-02T14:32:20;1.20;;;1.20;;
3066;SDS011;1544;48.834;9.194;2022-08-02T14:35:01;1.43;;;1.30;;
3066;SDS011;1544;48.834;9.194;2022-08-02T14:37:32;1.77;;;1.67;;
3066;SDS011;1544;48.834;9.194;2022-08-02T14:40:03;1.97;;;1.87;;
3066;SDS011;1544;48.834;9.194;2022-08-02T14:42:55;1.80;;;1.70;;
3066;SDS011;1544;48.834;9.194;2022-08-02T14:45:26;2.10;;;1.40;;
3066;SDS011;1544;48.834;9.194;2022-08-02T14:48:10;1.20;;;1.20;;
3066;SDS011;1544;48.834;9.194;2022-08-02T14:50:41;3.00;;;1.60;;
3066;SDS011;1544;48.834;9.194;2022-08-02T14:53:13;1.80;;;1.60;;
3066;SDS011;1544;48.834;9.194;2022-08-02T14:55:44;1.30;;;1.30;;
3066;SDS011;1544;48.834;9.194;2022-08-02T14:58:15;1.57;;;1.47;;
3066;SDS011;1544;48.834;9.194;2022-08-02T15:00:46;1.20;;;1.20;;
3066;SDS011;1544;48.834;9.194;2022-08-02T15:03:20;1.70;;;1.60;;
3066;SDS011;1544;48.834;9.194;2022-08-02T15:05:51;1.27;;;1.20;;
3066;SDS011;1544;48.834;9.194;2022-08-02T15:08:23;1.60;;;1.50;;
3066;SDS011;1544;48.834;9.194;2022-08-02T15:10:54;1.90;;;1.50;;
3066;SDS011;1544;48.834;9.194;2022-08-02T15:13:25;1.40;;;1.30;;
3066;SDS011;1544;48.834;9.194;2022-08-02T15:15:56;1.50;;;1.47;;
3066;SDS011;1544;48.834;9.194;2022-08-02T15:18:27;1.43;;;1.33;;
3066;SDS011;1544;48.834;9.194;2022-08-02T15:20:59;1.60;;;1.50;;
3066;SDS011;1544;48.834;9.194;2022-08-02T15:23:38;1.50;;;1.40;;
3066;SDS011;1544;48.834;9.194;2022-08-02T15:26:09;1.37;;;1.37;;
3066;SDS011;1544;48.834;9.194;2022-08-02T15:28:40;1.50;;;1.40;;
3066;SDS011;1544;48.834;9.194;2022-08-02T15:31:11;1.50;;;1.50;;
3066;SDS011;1544;48.834;9.194;2022-08-02T15:34:02;1.50;;;1.40;;
3066;SDS011;1544;48.834;9.194;2022-08-02T15:36:33;2.17;;;1.73;;
3066;SDS011;1544;48.834;9.194;2022-08-02T15:39:04;1.50;;;1.40;;
3066;SDS011;1544;48.834;9.194;2022-08-02T15:41:35;1.60;;;1.50;;
3066;SDS011;1544;48.834;9.194;2022-08-02T15:44:07;1.53;;;1.53;;
3066;SDS011;1544;48.834;9.194;2022-08-02T15:46:39;1.80;;;1.70;;
3066;SDS011;1544;48.834;9.194;2022-08-02T15:49:10;1.87;;;1.37;;
3066;SDS011;1544;48.834;9.194;2022-08-02T15:51:41;1.50;;;1.40;;
3066;SDS011;1544;48.834;9.194;2022-08-02T15:54:12;1.33;;;1.33;;
3066;SDS011;1544;48.834;9.194;2022-08-02T15:56:43;1.40;;;1.40;;
3066;SDS011;1544;48.834;9.194;2022-08-02T15:59:14;1.57;;;1.30;;
3066;SDS011;1544;48.834;9.194;2022-08-02T16:01:45;2.10;;;1.20;;
3066;SDS011;1544;48.834;9.194;2022-08-02T16:04:17;1.50;;;1.50;;
3066;SDS011;1544;48.834;9.194;2022-08-02T16:06:48;1.77;;;1.67;;
3066;SDS011;1544;48.834;9.194;2022-08-02T16:09:19;1.40;;;1.40;;
3066;SDS011;1544;48.834;9.194;2022-08-02T16:11:50;3.97;;;1.33;;
3066;SDS011;1544;48.834;9.194;2022-08-02T16:14:21;1.52;;;1.48;;
3066;SDS011;1544;48.834;9.194;2022-08-02T16:16:52;1.52;;;1.42;;
3066;SDS011;1544;48.834;9.194;2022-08-02T16:19:26;1.85;;;1.50;;
3066;SDS011;1544;48.834;9.194;2022-08-02T16:22:18;1.40;;;1.30;;
3066;SDS011;1544;48.834;9.194;2022-08-02T16:24:49;1.33;;;1.33;;
3066;SDS011;1544;48.834;9.194;2022-08-02T16:27:20;1.23;;;1.23;;
3066;SDS011;1544;48.834;9.194;2022-08-02T16:29:51;1.27;;;1.20;;
3066;SDS011;1544;48.834;9.194;2022-08-02T16:32:22;1.33;;;1.23;;
3066;SDS011;1544;48.834;9.194;2022-08-02T16:34:53;1.60;;;1.60;;
3066;SDS011;1544;48.834;9.194;2022-08-02T16:37:38;1.40;;;1.30;;
3066;SDS011;1544;48.834;9.194;2022-08-02T16:40:22;1.38;;;1.38;;
3066;SDS011;1544;48.834;9.194;2022-08-02T16:42:53;1.20;;;1.20;;
3066;SDS011;1544;48.834;9.194;2022-08-02T16:45:24;1.50;;;1.40;;
3066;SDS011;1544;48.834;9.194;2022-08-02T16:47:56;1.58;;;1.45;;
3066;SDS011;1544;48.834;9.194;2022-08-02T16:50:33;1.55;;;1.45;;
3066;SDS011;1544;48.834;9.194;2022-08-02T16:53:05;1.45;;;1.45;;